Metar Cercanos

 

LEPA - Palma De Mallorc, Spain
Distance from station: ONO 38km
Actualización: 24/05/2018 15:30
Despejado
Despejado
 Viento del ENE
Viento: ENE 19 km/h
Temperatura: 28°C
Indice Calor: 27°C
Rocío: 13°C
Humedad: 40%
Barómetro: 1015 hPa
Resumen: Despejado
Visibility: greater than 10 km
2018/05/24 13:30 LEPA 241330Z 07010KT 040V120 CAVOK 28/13 Q1015 NOSIG
LEMH - Mahon/Menorca Is, Spain
Distance from station: ENE 105km
Actualización: 24/05/2018 15:30
Despejado
Despejado
 Viento del E
Viento: E 20 km/h
Temperatura: 22°C
Rocío: 14°C
Humedad: 61%
Barómetro: 1017 hPa
Resumen: Despejado
Visibility: greater than 10 km
2018/05/24 13:30 LEMH 241330Z 10011KT 070V140 CAVOK 22/14 Q1017
 
LEIB - Ibiza/Es Codola, Spain
Distance from station: OSO 165km
Actualización: 24/05/2018 15:30
Despejado
Despejado
 Viento del ENE
Viento: ENE 28 km/h
Temperatura: 22°C
Rocío: 17°C
Humedad: 73%
Barómetro: 1015 hPa
Resumen: Despejado
Visibility: greater than 10 km
2018/05/24 13:30 LEIB 241330Z 06015KT 030V090 CAVOK 22/17 Q1015 NOSIG
LEBL - Barcelona Airpor, Spain
Distance from station: NNO 225km
Actualización: 24/05/2018 15:30
Despejado
Despejado
 Viento del SSE
Viento: SSE 17 km/h
Temperatura: 23°C
Rocío: 16°C
Humedad: 65%
Barómetro: 1016 hPa
Resumen: Despejado
Visibility: greater than 10 km
2018/05/24 13:30 LEBL 241330Z 15009KT 130V210 CAVOK 23/16 Q1016 NOSIG
 
LEVC - Valencia (civ/Mi, Spain
Distance from station: NO 188km
Actualización: 24/05/2018 15:30
Few Clouds
Few Clouds
 Viento del E
Viento: E 19 km/h
Temperatura: 25°C
Rocío: 11°C
Humedad: 42%
Barómetro: 1015 hPa
Clouds: Few Clouds
Visibility: 10 km
Cloud details: Few Clouds 1219 m
2018/05/24 13:30 LEVC 241330Z 08010KT 030V120 9999 FEW040 25/11 Q1015 NOSIG
LEGE - Gerona/Costa Bra, Spain
Distance from station: N 276km
Actualización: 24/05/2018 15:30
Few Clouds
Few Clouds
 Viento del S
Viento: S 26 km/h
Temperatura: 25°C
Rocío: 12°C
Humedad: 44%
Barómetro: 1015 hPa
Clouds: Few Clouds
Visibility: 10 km
Cloud details: Few Clouds 914 m
2018/05/24 13:30 LEGE 241330Z 18014KT 150V210 9999 FEW030 25/12 Q1015
 
LEAL - Alicante/El Alte, Spain
Distance from station: OSO 344km
Actualización: 24/05/2018 15:30
Despejado
Despejado
 Viento del ENE
Viento: ENE 30 km/h
Temperatura: 27°C
Rocío: 12°C
Humedad: 39%
Barómetro: 1013 hPa
Resumen: Despejado
Visibility: greater than 10 km
2018/05/24 13:30 LEAL 241330Z 07016KT CAVOK 27/12 Q1013 NOSIG
LEAM - Almeria Airport, Spain
Distance from station: SSO 56km
Actualización: 24/05/2018 15:30
Few Clouds
Few Clouds
 Viento del ENE
Viento: ENE 35 km/h
Temperatura: 31°C
Rocío: 12°C
Humedad: 31%
Barómetro: 1009 hPa
Clouds: Few Clouds
Visibility: 10 km
Cloud details: Few Clouds 2438 m
2018/05/24 13:30 LEAM 241330Z 07019KT 9999 FEW080 31/12 Q1009
 
LEZG - Zaragoza (mil/Ci, Spain
Distance from station: NO 431km
Actualización: 24/05/2018 15:30
Few Clouds
Few Clouds
 Viento del E
Viento: E 9 km/h
Temperatura: 27°C
Indice Calor: 27°C
Rocío: 13°C
Humedad: 42%
Barómetro: 1014 hPa
Clouds: Few Clouds
Visibility: 10 km
Cloud details: Few Clouds 610 m
2018/05/24 13:30 LEZG 241330Z 09005KT 030V150 9999 FEW020 27/13 Q1014
LEMD - Madrid/Barajas, Spain
Distance from station: ONO 234km
Actualización: 24/05/2018 15:30
Few Clouds
Few Clouds
 Viento del NE
Viento: NE 13 km/h
Temperatura: 27°C
Rocío: 10°C
Humedad: 34%
Barómetro: 1013 hPa
Clouds: Few Clouds
Visibility: 10 km
Cloud details: Parcialmente nuboso 1524 m
Few Clouds 1829 m
2018/05/24 13:30 LEMD 241330Z 05007KT 340V150 9999 SCT050 FEW060TCU 27/10 Q1013 NOSIG
 
LEGR - Granada Airport, Spain
Distance from station: OSO 62km
Actualización: 24/05/2018 15:30
Few Clouds
Few Clouds
 Viento del S
Viento: S 17 km/h
Temperatura: 27°C
Rocío: 11°C
Humedad: 37%
Barómetro: 1012 hPa
Clouds: Few Clouds
Visibility: 10 km
Cloud details: Few Clouds 1829 m
2018/05/24 13:30 LEGR 241330Z 18009KT 140V220 9999 FEW060 27/11 Q1012
LEMG - Malaga (civ/Mil), Spain
Distance from station: OSO 227km
Actualización: 24/05/2018 15:30
Few Clouds
Few Clouds
 Viento del S
Viento: S 20 km/h
Temperatura: 24°C
Rocío: 11°C
Humedad: 44%
Barómetro: 1012 hPa
Clouds: Few Clouds
Visibility: 10 km
Cloud details: Few Clouds 1524 m
2018/05/24 13:30 LEMG 241330Z 17011KT 120V210 9999 FEW050 24/11 Q1012 WS R12 NOSIG
 
LEZL - Sevilla (civ/Mil, Spain
Distance from station: S 318km
Actualización: 24/05/2018 15:30
Few Clouds
Few Clouds
 Viento del OSO
Viento: OSO 17 km/h
Temperatura: 22°C
Rocío: 14°C
Humedad: 61%
Barómetro: 1013 hPa
Clouds: Few Clouds
Visibility: 10 km
Cloud details: Few Clouds 1067 m
2018/05/24 13:30 LEZL 241330Z 25009KT 220V290 9999 FEW035 22/14 Q1013 NOSIG
LEVT - Vitoria, Spain
Distance from station: NO 226km
Actualización: 24/05/2018 15:30
Parcialmente nuboso
Parcialmente nuboso
 Viento del ONO
Viento: ONO 6 km/h
Temperatura: 23°C
Rocío: 15°C
Humedad: 61%
Barómetro: 1016 hPa
Clouds: Parcialmente nuboso
Visibility: 10 km
Cloud details: Parcialmente nuboso 1219 m
2018/05/24 13:30 LEVT 241330Z 29003KT 9999 SCT040TCU 23/15 Q1016
 
LEBB - Bilbao/Sondica, Spain
Distance from station: NNO 235km
Actualización: 24/05/2018 15:30
Few Clouds
Few Clouds
 Viento del ONO
Viento: ONO 19 km/h
Temperatura: 23°C
Rocío: 18°C
Humedad: 74%
Barómetro: 1015 hPa
Clouds: Few Clouds
Visibility: 10 km
Cloud details: Few Clouds 671 m
2018/05/24 13:30 LEBB 241330Z 29010KT 250V330 9999 FEW022 23/18 Q1015 NOSIG
LESO - San Sebastian/Fu, Spain
Distance from station: N 231km
Actualización: 24/05/2018 15:30
Few Clouds
Few Clouds
 Viento del N
Viento: N 11 km/h
Temperatura: 23°C
Rocío: 16°C
Humedad: 65%
Barómetro: 1015 hPa
Clouds: Few Clouds
Visibility: 10 km
Cloud details: Few Clouds 914 m
2018/05/24 13:30 LESO 241330Z 36006KT 320V060 9999 FEW030 23/16 Q1015
 
LEVD - Valladolid(Mil/C, Spain
Distance from station: ONO 239km
Actualización: 24/05/2018 15:30
Few Clouds
Few Clouds
 Viento del NE
Viento: NE 7 km/h
Temperatura: 20°C
Rocío: 12°C
Humedad: 60%
Barómetro: 1016 hPa
Clouds: Few Clouds
Visibility: 10 km
Cloud details: Few Clouds 1433 m
2018/05/24 13:30 LEVD 241330Z 04004KT 330V120 9999 FEW047 20/12 Q1016
LESA - Salamanca (civ/M, Spain
Distance from station: ONO 349km
Actualización: 24/05/2018 15:30
Lluvia débil, Few clouds
Lluvia débil, Few clouds
 Viento del NNE
Viento: NNE 11 km/h
Temperatura: 18°C
Rocío: 14°C
Humedad: 78%
Barómetro: 1015 hPa
Resumen: Lluvia débil
Clouds: Few Clouds
Visibility: 8 km
Cloud details: Few Clouds 610 m
2018/05/24 13:30 LESA 241330Z 03006KT 350V070 8000 -RA FEW020 18/14 Q1015
 
LEXJ - Santander/Paraya, Spain
Distance from station: NNO 247km
Actualización: 24/05/2018 15:30
Parcialmente nuboso
Parcialmente nuboso
 Viento del NE
Viento: NE 11 km/h
Temperatura: 20°C
Rocío: 18°C
Humedad: 88%
Barómetro: 1015 hPa
Clouds: Parcialmente nuboso
Visibility: 10 km
Cloud details: Few Clouds 427 m
Parcialmente nuboso 579 m
2018/05/24 13:30 LEXJ 241330Z 05006KT 360V080 9999 FEW014 SCT019 20/18 Q1015
LEAS - Asturias/Aviles, Spain
Distance from station: NO 214km
Actualización: 24/05/2018 15:30
Parcialmente nuboso
Parcialmente nuboso
 Viento del NE
Viento: NE 11 km/h
Temperatura: 19°C
Rocío: 16°C
Humedad: 83%
Barómetro: 1015 hPa
Clouds: Parcialmente nuboso
Visibility: 7 km
Cloud details: Parcialmente nuboso 488 m
Parcialmente nuboso 610 m
2018/05/24 13:30 LEAS 241330Z 04006KT 320V110 7000 SCT016 SCT020 19/16 Q1015 NOSIG
 
LECO - La Coruna/Alvedr, Spain
Distance from station: ONO 222km
Actualización: 24/05/2018 15:30
Few Clouds
Few Clouds
 Viento del N
Viento: N 13 km/h
Temperatura: 23°C
Rocío: 15°C
Humedad: 61%
Barómetro: 1013 hPa
Clouds: Few Clouds
Visibility: 10 km
Cloud details: Few Clouds 610 m
2018/05/24 13:30 LECO 241330Z 01007KT 330V050 9999 FEW020 23/15 Q1013 NOSIG
LEVX - Vigo/Peinador, Spain
Distance from station: O 214km
Actualización: 24/05/2018 15:40
Parcialmente nuboso
Parcialmente nuboso
 Viento del SO
Viento: SO 15 km/h
Temperatura: 20°C
Rocío: 16°C
Humedad: 78%
Barómetro: 1014 hPa
Clouds: Parcialmente nuboso
Visibility: 10 km
Cloud details: Few Clouds 610 m
Few Clouds 914 m
Parcialmente nuboso 1402 m
2018/05/24 13:40 LEVX 241340Z 22008KT 190V270 9999 FEW020 FEW030CB SCT046 20/16 Q1014 TEMPO 3000 TSRA BKN025CB